createdAt,value
2024-03-12T00:01:10.050Z,1.00
2024-03-12T00:03:44.036Z,0.60
2024-03-12T00:06:11.838Z,0.90
2024-03-12T00:08:40.677Z,0.90
2024-03-12T00:11:08.948Z,0.98
2024-03-12T00:13:36.157Z,1.20
2024-03-12T00:16:04.818Z,0.80
2024-03-12T00:18:34.188Z,0.80
2024-03-12T00:21:04.496Z,0.82
2024-03-12T00:23:31.534Z,0.82
2024-03-12T00:25:58.521Z,0.60
2024-03-12T00:28:25.571Z,1.00
2024-03-12T00:30:55.045Z,0.75
2024-03-12T00:33:22.295Z,1.20
2024-03-12T00:35:49.473Z,0.90
2024-03-12T00:38:18.859Z,0.70
2024-03-12T00:40:52.233Z,0.60
2024-03-12T00:43:19.410Z,0.65
2024-03-12T00:45:51.308Z,0.80
2024-03-12T00:48:25.121Z,0.73
2024-03-12T00:50:52.236Z,0.68
2024-03-12T00:53:19.220Z,1.00
2024-03-12T00:55:48.478Z,1.10
2024-03-12T00:58:20.858Z,0.82
2024-03-12T01:00:50.183Z,0.70
2024-03-12T01:03:18.356Z,0.60
2024-03-12T01:08:13.612Z,0.60
2024-03-12T01:10:53.269Z,0.68
2024-03-12T01:13:48.755Z,0.63
2024-03-12T01:16:28.036Z,0.60
2024-03-12T01:18:55.245Z,0.70
2024-03-12T01:21:22.380Z,0.60
2024-03-12T01:23:49.994Z,0.70
2024-03-12T01:26:16.997Z,0.70
2024-03-12T01:28:44.048Z,0.68
2024-03-12T01:31:11.130Z,0.60
2024-03-12T01:33:38.255Z,0.70
2024-03-12T01:36:19.893Z,0.70
2024-03-12T01:38:51.685Z,0.60
2024-03-12T01:41:19.072Z,0.60
2024-03-12T01:43:56.594Z,0.60
2024-03-12T01:46:30.494Z,0.50
2024-03-12T01:48:59.774Z,0.80
2024-03-12T01:51:28.736Z,0.98
2024-03-12T01:53:57.603Z,0.90
2024-03-12T01:56:27.631Z,0.80
2024-03-12T01:58:55.113Z,0.80
2024-03-12T02:01:22.600Z,0.50
2024-03-12T02:03:53.096Z,0.70
2024-03-12T02:06:20.906Z,0.80
2024-03-12T02:08:50.190Z,0.80
2024-03-12T02:11:17.726Z,0.80
2024-03-12T02:13:44.967Z,0.80
2024-03-12T02:16:12.075Z,0.73
2024-03-12T02:18:39.467Z,0.50
2024-03-12T02:21:06.991Z,0.75
2024-03-12T02:23:47.361Z,1.10
2024-03-12T02:26:14.581Z,1.05
2024-03-12T02:28:41.623Z,1.00
2024-03-12T02:31:08.762Z,0.73
2024-03-12T02:33:36.734Z,1.58
2024-03-12T02:36:06.272Z,0.63
2024-03-12T02:38:33.324Z,0.80
2024-03-12T02:41:00.396Z,0.90
2024-03-12T02:43:28.903Z,0.70
2024-03-12T02:45:56.360Z,1.00
2024-03-12T02:48:24.753Z,0.90
2024-03-12T02:50:52.558Z,0.80
2024-03-12T02:53:19.564Z,0.95
2024-03-12T02:55:47.704Z,1.00
2024-03-12T02:58:14.906Z,1.00
2024-03-12T03:00:42.915Z,0.88
2024-03-12T03:03:09.926Z,1.13
2024-03-12T03:05:37.004Z,1.00
2024-03-12T03:08:04.367Z,1.02
2024-03-12T03:10:31.377Z,0.73
2024-03-12T03:12:58.490Z,0.90
2024-03-12T03:15:25.593Z,0.80
2024-03-12T03:17:53.848Z,0.88
2024-03-12T03:20:21.240Z,1.05
2024-03-12T03:22:48.321Z,0.85
2024-03-12T03:25:16.020Z,0.90
2024-03-12T03:27:43.589Z,0.65
2024-03-12T03:30:13.912Z,0.85
2024-03-12T03:32:41.060Z,1.00
2024-03-12T03:35:08.467Z,1.00
2024-03-12T03:37:38.222Z,0.77
2024-03-12T03:40:11.033Z,0.90
2024-03-12T03:42:43.124Z,0.80
2024-03-12T03:45:10.433Z,0.90
2024-03-12T03:47:37.562Z,1.00
2024-03-12T03:50:09.399Z,1.30
2024-03-12T03:52:38.227Z,0.98
2024-03-12T03:55:07.835Z,1.23
2024-03-12T03:57:35.234Z,1.20
2024-03-12T04:00:13.247Z,1.40
2024-03-12T04:02:40.920Z,1.15
2024-03-12T04:05:09.010Z,1.30
2024-03-12T04:07:36.077Z,1.40
2024-03-12T04:10:03.759Z,1.30
2024-03-12T04:12:30.940Z,1.40
2024-03-12T04:14:59.165Z,1.20
2024-03-12T04:17:26.320Z,1.23
2024-03-12T04:19:53.382Z,1.25
2024-03-12T04:22:20.425Z,1.55
2024-03-12T04:24:48.062Z,1.30
2024-03-12T04:27:16.147Z,2.00
2024-03-12T04:29:43.880Z,1.23
2024-03-12T04:32:11.093Z,1.40
2024-03-12T04:34:38.371Z,1.58
2024-03-12T04:37:05.800Z,1.60
2024-03-12T04:39:33.361Z,1.85
2024-03-12T04:42:03.361Z,1.63
2024-03-12T04:44:30.919Z,1.52
2024-03-12T04:46:58.425Z,1.70
2024-03-12T04:49:26.522Z,1.80
2024-03-12T04:51:54.375Z,2.08
2024-03-12T04:54:21.511Z,1.83
2024-03-12T04:56:51.724Z,2.05
2024-03-12T04:59:19.105Z,1.73
2024-03-12T05:01:48.792Z,2.03
2024-03-12T05:04:22.421Z,1.92
2024-03-12T05:06:50.912Z,1.35
2024-03-12T05:09:19.201Z,1.30
2024-03-12T05:11:46.931Z,1.48
2024-03-12T05:14:14.385Z,1.20
2024-03-12T05:16:41.429Z,1.08
2024-03-12T05:19:11.882Z,1.35
2024-03-12T05:21:39.454Z,1.63
2024-03-12T05:24:07.126Z,1.35
2024-03-12T05:26:37.377Z,1.60
2024-03-12T05:29:04.477Z,1.40
2024-03-12T05:31:33.630Z,1.30
2024-03-12T05:34:03.139Z,1.48
2024-03-12T05:36:42.946Z,1.08
2024-03-12T05:39:27.458Z,1.50
2024-03-12T05:42:12.835Z,1.80
2024-03-12T05:44:58.650Z,1.80
2024-03-12T05:47:45.148Z,2.17
2024-03-12T05:50:18.296Z,1.67
2024-03-12T05:52:49.331Z,1.85
2024-03-12T05:55:16.707Z,2.20
2024-03-12T05:57:46.864Z,2.17
2024-03-12T06:00:14.285Z,2.30
2024-03-12T06:02:43.025Z,1.80
2024-03-12T06:05:13.836Z,1.67
2024-03-12T06:07:50.879Z,1.75
2024-03-12T06:10:18.126Z,1.73
2024-03-12T06:12:45.671Z,1.95
2024-03-12T06:15:12.683Z,1.80
2024-03-12T06:17:39.782Z,1.90
2024-03-12T06:20:11.155Z,2.08
2024-03-12T06:22:38.945Z,2.00
2024-03-12T06:25:06.894Z,1.83
2024-03-12T06:27:37.551Z,2.15
2024-03-12T06:30:12.152Z,2.20
2024-03-12T06:32:39.168Z,1.92
2024-03-12T06:35:06.609Z,2.08
2024-03-12T06:37:34.162Z,1.88
2024-03-12T06:40:05.108Z,2.40
2024-03-12T06:45:01.628Z,1.98
2024-03-12T06:47:30.042Z,2.33
2024-03-12T06:49:59.663Z,2.15
2024-03-12T06:52:27.836Z,2.40
2024-03-12T06:54:55.010Z,2.55
2024-03-12T06:57:23.378Z,2.55
2024-03-12T06:59:50.843Z,2.33
2024-03-12T07:02:18.883Z,3.40
2024-03-12T07:04:48.445Z,2.70
2024-03-12T07:07:20.616Z,2.50
2024-03-12T07:09:48.417Z,2.90
2024-03-12T07:12:17.332Z,2.53
2024-03-12T07:14:46.669Z,3.33
2024-03-12T07:17:15.409Z,3.20
2024-03-12T07:19:43.992Z,2.55
2024-03-12T07:22:12.080Z,2.85
2024-03-12T07:24:40.712Z,2.55
2024-03-12T07:27:08.666Z,2.35
2024-03-12T07:29:36.039Z,2.20
2024-03-12T07:32:04.963Z,2.50
2024-03-12T07:34:32.850Z,2.95
2024-03-12T07:37:01.613Z,2.95
2024-03-12T07:39:35.710Z,2.15
2024-03-12T07:42:15.376Z,3.03
2024-03-12T07:44:42.935Z,3.40
2024-03-12T07:47:11.684Z,3.08
2024-03-12T07:49:38.818Z,2.80
2024-03-12T07:52:10.518Z,3.05
2024-03-12T07:54:37.871Z,3.05
2024-03-12T07:57:10.998Z,3.75
2024-03-12T07:59:38.327Z,3.72
2024-03-12T08:02:12.663Z,3.08
2024-03-12T08:04:46.569Z,3.78
2024-03-12T08:07:14.722Z,3.28
2024-03-12T08:09:45.172Z,3.03
2024-03-12T08:12:16.337Z,3.58
2024-03-12T08:14:45.709Z,3.33
2024-03-12T08:17:13.652Z,3.38
2024-03-12T08:19:44.427Z,2.78
2024-03-12T08:22:12.022Z,3.42
2024-03-12T08:24:40.391Z,3.58
2024-03-12T08:27:08.309Z,3.60
2024-03-12T08:29:35.445Z,3.40
2024-03-12T08:32:02.627Z,3.00
2024-03-12T08:34:29.774Z,2.92
2024-03-12T08:36:57.592Z,3.42
2024-03-12T08:39:29.237Z,3.00
2024-03-12T08:41:56.922Z,3.25
2024-03-12T08:44:24.749Z,3.25
2024-03-12T08:46:51.771Z,3.15
2024-03-12T08:49:18.885Z,2.78
2024-03-12T08:51:46.271Z,3.08
2024-03-12T08:54:15.163Z,2.70
2024-03-12T08:56:44.161Z,2.90
2024-03-12T08:59:16.775Z,3.22
2024-03-12T09:01:44.960Z,3.05
2024-03-12T09:04:12.450Z,3.08
2024-03-12T09:06:42.039Z,3.45
2024-03-12T09:09:09.257Z,2.95
2024-03-12T09:11:37.975Z,2.58
2024-03-12T09:14:06.023Z,2.95
2024-03-12T09:16:33.148Z,2.80
2024-03-12T09:19:01.433Z,2.92
2024-03-12T09:21:29.110Z,2.83
2024-03-12T09:24:01.575Z,3.13
2024-03-12T09:26:30.280Z,2.80
2024-03-12T09:28:58.731Z,3.03
2024-03-12T09:31:26.149Z,3.40
2024-03-12T09:33:53.917Z,3.10
2024-03-12T09:36:22.265Z,3.55
2024-03-12T09:38:51.907Z,3.67
2024-03-12T09:41:21.882Z,3.15
2024-03-12T09:43:49.695Z,3.13
2024-03-12T09:46:18.143Z,3.25
2024-03-12T09:48:47.796Z,3.28
2024-03-12T09:51:15.123Z,3.22
2024-03-12T09:53:43.621Z,3.17
2024-03-12T09:56:16.390Z,3.95
2024-03-12T09:58:44.344Z,3.92
2024-03-12T10:01:13.732Z,3.40
2024-03-12T10:03:44.855Z,4.25
2024-03-12T10:08:45.152Z,3.55
2024-03-12T10:11:22.361Z,3.97
2024-03-12T10:13:59.929Z,4.55
2024-03-12T10:16:28.829Z,4.20
2024-03-12T10:19:19.610Z,4.35
2024-03-12T10:21:47.159Z,4.30
2024-03-12T10:24:18.276Z,5.13
2024-03-12T10:29:20.825Z,4.63
2024-03-12T10:31:49.243Z,5.75
2024-03-12T10:34:21.340Z,6.28
2024-03-12T10:36:50.684Z,6.93
2024-03-12T10:39:29.635Z,6.88
2024-03-12T10:42:00.454Z,6.85
2024-03-12T10:44:29.970Z,6.32
2024-03-12T10:46:59.870Z,6.95
2024-03-12T10:49:28.920Z,7.07
2024-03-12T10:51:57.752Z,7.38
2024-03-12T10:54:27.710Z,7.57
2024-03-12T10:56:55.821Z,7.72
2024-03-12T10:59:24.701Z,6.75
2024-03-12T11:01:52.035Z,7.88
2024-03-12T11:04:19.163Z,7.55
2024-03-12T11:06:49.877Z,7.35
2024-03-12T11:09:23.053Z,7.38
2024-03-12T11:11:53.461Z,8.43
2024-03-12T11:14:21.678Z,7.67
2024-03-12T11:16:48.957Z,8.25
2024-03-12T11:19:22.003Z,7.75
2024-03-12T11:21:50.933Z,7.32
2024-03-12T11:24:30.618Z,6.60
2024-03-12T11:27:02.061Z,7.03
2024-03-12T11:30:09.923Z,7.15
2024-03-12T11:32:50.130Z,6.68
2024-03-12T11:35:22.499Z,6.30
2024-03-12T11:40:40.629Z,6.80
2024-03-12T11:43:12.437Z,6.60
2024-03-12T11:45:46.488Z,5.15
2024-03-12T11:48:20.174Z,5.93
2024-03-12T11:51:00.290Z,5.45
2024-03-12T11:53:36.621Z,6.00
2024-03-12T11:56:05.701Z,5.55
2024-03-12T11:58:42.102Z,4.70
2024-03-12T12:01:11.613Z,4.75
2024-03-12T12:03:38.975Z,5.63
2024-03-12T12:06:07.443Z,5.72
2024-03-12T12:08:42.470Z,6.00
2024-03-12T12:11:17.019Z,5.72
2024-03-12T12:16:18.872Z,4.73
2024-03-12T12:18:46.654Z,6.25
2024-03-12T12:21:19.775Z,6.07
2024-03-12T12:23:50.453Z,5.30
2024-03-12T12:26:23.061Z,4.82
2024-03-12T12:28:53.974Z,6.07
2024-03-12T12:33:56.799Z,5.80
2024-03-12T12:36:31.326Z,7.10
2024-03-12T12:39:03.790Z,7.00
2024-03-12T12:41:43.392Z,6.82
2024-03-12T12:44:16.177Z,7.18
2024-03-12T12:46:44.100Z,8.20
2024-03-12T12:49:14.352Z,8.70
2024-03-12T12:51:42.665Z,7.68
2024-03-12T12:54:10.709Z,8.45
2024-03-12T12:56:47.366Z,8.32
2024-03-12T12:59:17.702Z,7.82
2024-03-12T13:01:48.341Z,9.15
2024-03-12T13:04:24.588Z,7.78
2024-03-12T13:06:54.891Z,8.02
2024-03-12T13:09:30.260Z,7.13
2024-03-12T13:11:58.557Z,7.05
2024-03-12T13:14:27.079Z,6.07
2024-03-12T13:16:55.042Z,5.90
2024-03-12T13:19:23.927Z,5.20
2024-03-12T13:21:51.734Z,4.78
2024-03-12T13:24:22.015Z,4.97
2024-03-12T13:26:49.647Z,4.10
2024-03-12T13:29:17.064Z,4.32
2024-03-12T13:31:44.764Z,4.88
2024-03-12T13:34:11.835Z,4.70
2024-03-12T13:36:38.933Z,4.40
2024-03-12T13:39:07.416Z,4.35
2024-03-12T13:41:35.742Z,4.95
2024-03-12T13:44:02.858Z,4.47
2024-03-12T13:46:30.021Z,5.20
2024-03-12T13:49:16.588Z,5.68
2024-03-12T13:51:44.656Z,5.05
2024-03-12T13:54:12.060Z,5.95
2024-03-12T13:56:39.322Z,5.55
2024-03-12T13:59:06.482Z,5.10
2024-03-12T14:01:34.275Z,4.35
2024-03-12T14:04:01.889Z,4.55
2024-03-12T14:06:31.126Z,4.93
2024-03-12T14:08:58.404Z,5.85
2024-03-12T14:11:26.739Z,6.85
2024-03-12T14:13:56.199Z,8.25
2024-03-12T14:16:24.008Z,8.35
2024-03-12T14:18:53.202Z,8.00
2024-03-12T14:21:20.462Z,9.80
2024-03-12T14:23:48.684Z,9.32
2024-03-12T14:26:18.997Z,10.05
2024-03-12T14:28:47.042Z,10.90
2024-03-12T14:31:17.494Z,10.07
2024-03-12T14:33:44.820Z,9.02
2024-03-12T14:36:11.890Z,7.97
2024-03-12T14:38:39.183Z,8.98
2024-03-12T14:41:07.465Z,9.40
2024-03-12T14:43:35.539Z,8.10
2024-03-12T14:46:05.922Z,8.90
2024-03-12T14:48:33.352Z,8.88
2024-03-12T14:51:01.059Z,9.38
2024-03-12T14:53:28.589Z,9.93
2024-03-12T14:55:55.867Z,9.05
2024-03-12T14:58:23.368Z,9.93
2024-03-12T15:00:50.671Z,9.65
2024-03-12T15:03:19.887Z,10.65
2024-03-12T15:05:54.813Z,10.02
2024-03-12T15:08:21.985Z,10.05
2024-03-12T15:10:49.126Z,9.30
2024-03-12T15:13:16.359Z,8.93
2024-03-12T15:15:43.460Z,9.15
2024-03-12T15:18:13.893Z,8.55
2024-03-12T15:20:42.743Z,8.80
2024-03-12T15:23:09.805Z,10.20
2024-03-12T15:25:36.886Z,11.07
2024-03-12T15:28:04.319Z,9.43
2024-03-12T15:30:31.942Z,9.40
2024-03-12T15:32:59.198Z,8.50
2024-03-12T15:35:26.461Z,8.40
2024-03-12T15:37:55.121Z,7.85
2024-03-12T15:40:23.716Z,7.63
2024-03-12T15:42:51.060Z,7.03
2024-03-12T15:45:18.226Z,6.78
2024-03-12T15:47:45.694Z,7.03
2024-03-12T15:50:13.610Z,6.88
2024-03-12T15:52:41.566Z,6.95
2024-03-12T15:55:09.611Z,6.28
2024-03-12T15:57:39.892Z,7.05
2024-03-12T16:00:09.463Z,7.10
2024-03-12T16:02:39.845Z,7.07
2024-03-12T16:05:07.445Z,7.95
2024-03-12T16:07:37.517Z,8.60
2024-03-12T16:10:06.178Z,7.95
2024-03-12T16:12:33.712Z,9.68
2024-03-12T16:15:01.039Z,8.70
2024-03-12T16:17:31.256Z,8.02
2024-03-12T16:19:58.531Z,7.78
2024-03-12T16:22:25.659Z,8.73
2024-03-12T16:24:52.839Z,9.60
2024-03-12T16:27:19.930Z,9.95
2024-03-12T16:29:48.445Z,9.52
2024-03-12T16:32:15.663Z,9.82
2024-03-12T16:34:42.984Z,10.55
2024-03-12T16:37:10.500Z,10.10
2024-03-12T16:39:39.844Z,11.57
2024-03-12T16:42:07.337Z,10.40
2024-03-12T16:44:34.322Z,9.77
2024-03-12T16:47:05.736Z,10.50
2024-03-12T16:49:33.916Z,11.07
2024-03-12T16:52:02.253Z,9.75
2024-03-12T16:54:31.954Z,8.65
2024-03-12T16:57:03.564Z,8.80
2024-03-12T16:59:31.808Z,8.82
2024-03-12T17:01:59.453Z,8.98
2024-03-12T17:04:27.946Z,8.63
2024-03-12T17:06:59.445Z,9.07
2024-03-12T17:09:27.067Z,9.20
2024-03-12T17:11:57.478Z,7.85
2024-03-12T17:14:30.734Z,8.70
2024-03-12T17:17:07.826Z,8.45
2024-03-12T17:19:38.236Z,8.57
2024-03-12T17:22:06.908Z,8.73
2024-03-12T17:24:35.638Z,9.48
2024-03-12T17:27:11.208Z,9.32
2024-03-12T17:29:38.633Z,10.77
2024-03-12T17:32:06.626Z,11.23
2024-03-12T17:34:34.209Z,11.98
2024-03-12T17:37:04.966Z,11.90
2024-03-12T17:42:02.958Z,10.57
2024-03-12T17:44:30.469Z,12.15
2024-03-12T17:47:00.876Z,10.45
2024-03-12T17:49:40.972Z,10.63
2024-03-12T17:52:11.795Z,9.88
2024-03-12T17:54:39.739Z,11.27
2024-03-12T17:57:12.401Z,10.35
2024-03-12T17:59:40.812Z,10.90
2024-03-12T18:02:13.508Z,10.65
2024-03-12T18:04:42.207Z,10.95
2024-03-12T18:07:26.773Z,10.95
2024-03-12T18:09:58.207Z,9.93
2024-03-12T18:12:25.577Z,9.75
2024-03-12T18:14:52.625Z,10.20
2024-03-12T18:17:21.518Z,10.27
2024-03-12T18:19:48.686Z,10.27
2024-03-12T18:22:17.585Z,9.93
2024-03-12T18:24:47.353Z,9.55
2024-03-12T18:27:14.457Z,11.15
2024-03-12T18:29:44.164Z,10.15
2024-03-12T18:32:15.483Z,10.02
2024-03-12T18:34:43.441Z,11.30
2024-03-12T18:37:10.939Z,11.77
2024-03-12T18:39:38.189Z,10.82
2024-03-12T18:42:06.970Z,10.10
2024-03-12T18:44:34.231Z,10.40
2024-03-12T18:47:02.943Z,10.90
2024-03-12T18:49:30.379Z,11.50
2024-03-12T18:51:57.900Z,11.43
2024-03-12T18:54:25.368Z,10.23
2024-03-12T18:56:52.980Z,10.50
2024-03-12T18:59:20.412Z,10.80
2024-03-12T19:01:52.170Z,10.88
2024-03-12T19:04:31.042Z,11.65
2024-03-12T19:06:59.815Z,11.05
2024-03-12T19:09:30.355Z,10.43
2024-03-12T19:11:57.889Z,9.70
2024-03-12T19:14:25.335Z,9.57
2024-03-12T19:16:54.006Z,11.35
2024-03-12T19:19:25.060Z,9.60
2024-03-12T19:21:52.778Z,8.93
2024-03-12T19:24:19.959Z,9.95
2024-03-12T19:26:47.013Z,10.05
2024-03-12T19:29:14.046Z,9.85
2024-03-12T19:31:41.501Z,9.43
2024-03-12T19:34:16.446Z,9.05
2024-03-12T19:36:45.233Z,8.40
2024-03-12T19:39:13.408Z,9.30
2024-03-12T19:41:45.335Z,9.15
2024-03-12T19:44:13.260Z,8.75
2024-03-12T19:46:43.730Z,9.00
2024-03-12T19:49:11.208Z,8.93
2024-03-12T19:51:38.615Z,8.43
2024-03-12T19:54:09.476Z,8.23
2024-03-12T19:56:37.285Z,8.18
2024-03-12T19:59:05.901Z,8.57
2024-03-12T20:01:33.283Z,8.55
2024-03-12T20:04:00.723Z,7.97
2024-03-12T20:06:27.908Z,7.88
2024-03-12T20:08:56.213Z,7.75
2024-03-12T20:11:23.532Z,7.45
2024-03-12T20:13:51.027Z,8.13
2024-03-12T20:16:18.147Z,7.28
2024-03-12T20:18:45.939Z,7.30
2024-03-12T20:21:13.125Z,7.70
2024-03-12T20:23:42.424Z,7.45
2024-03-12T20:26:10.732Z,7.90
2024-03-12T20:28:37.741Z,7.68
2024-03-12T20:31:07.353Z,8.20
2024-03-12T20:33:34.362Z,8.15
2024-03-12T20:36:05.753Z,8.93
2024-03-12T20:38:32.933Z,8.27
2024-03-12T20:41:00.184Z,8.77
2024-03-12T20:43:28.702Z,7.72
2024-03-12T20:45:56.019Z,8.13
2024-03-12T20:48:23.488Z,7.80
2024-03-12T20:50:50.705Z,7.38
2024-03-12T20:53:18.738Z,8.10
2024-03-12T20:55:45.894Z,7.78
2024-03-12T20:58:14.704Z,7.00
2024-03-12T21:00:42.456Z,7.63
2024-03-12T21:03:12.109Z,7.72
2024-03-12T21:05:40.120Z,8.02
2024-03-12T21:08:08.117Z,8.30
2024-03-12T21:10:35.494Z,8.25
2024-03-12T21:13:02.875Z,8.65
2024-03-12T21:15:30.738Z,8.23
2024-03-12T21:17:57.826Z,8.60
2024-03-12T21:20:33.620Z,8.02
2024-03-12T21:23:04.590Z,6.80
2024-03-12T21:25:33.227Z,8.05
2024-03-12T21:28:00.489Z,6.80
2024-03-12T21:30:28.974Z,6.65
2024-03-12T21:32:59.386Z,6.30
2024-03-12T21:35:26.552Z,6.45
2024-03-12T21:37:53.701Z,6.82
2024-03-12T21:40:21.099Z,6.72
2024-03-12T21:42:48.300Z,6.50
2024-03-12T21:45:18.788Z,5.80
2024-03-12T21:47:47.841Z,5.45
2024-03-12T21:50:16.843Z,5.67
2024-03-12T21:52:44.374Z,6.03
2024-03-12T21:55:12.757Z,5.72
2024-03-12T21:57:41.603Z,5.20
2024-03-12T22:00:18.691Z,4.60
2024-03-12T22:02:45.983Z,5.57
2024-03-12T22:05:15.743Z,4.45
2024-03-12T22:07:45.131Z,4.65
2024-03-12T22:10:15.478Z,4.85
2024-03-12T22:12:42.940Z,4.60
2024-03-12T22:15:12.928Z,5.18
2024-03-12T22:17:43.488Z,5.45
2024-03-12T22:20:15.692Z,5.10
2024-03-12T22:22:45.961Z,5.10
2024-03-12T22:25:15.596Z,5.90
2024-03-12T22:27:44.975Z,5.47
2024-03-12T22:30:12.748Z,6.70
2024-03-12T22:32:43.393Z,6.10
2024-03-12T22:35:11.017Z,4.78
2024-03-12T22:37:38.761Z,5.13
2024-03-12T22:40:06.809Z,5.30
2024-03-12T22:42:34.443Z,4.60
2024-03-12T22:45:05.154Z,4.63
2024-03-12T22:47:33.507Z,4.57
2024-03-12T22:50:00.811Z,3.90
2024-03-12T22:52:29.831Z,3.35
2024-03-12T22:54:57.158Z,3.25
2024-03-12T22:57:24.677Z,3.28
2024-03-12T22:59:53.026Z,2.70
2024-03-12T23:02:20.535Z,2.50
2024-03-12T23:04:51.976Z,2.50
2024-03-12T23:07:19.724Z,2.08
2024-03-12T23:09:48.432Z,2.70
2024-03-12T23:12:16.255Z,2.28
2024-03-12T23:14:43.734Z,2.50
2024-03-12T23:17:11.181Z,2.10
2024-03-12T23:19:41.441Z,2.05
2024-03-12T23:22:10.313Z,2.13
2024-03-12T23:24:38.935Z,1.92
2024-03-12T23:27:06.217Z,1.80
2024-03-12T23:29:33.355Z,1.83
2024-03-12T23:32:01.173Z,1.90
2024-03-12T23:34:28.543Z,2.10
2024-03-12T23:36:55.730Z,2.10
2024-03-12T23:39:24.772Z,2.10
2024-03-12T23:41:53.463Z,1.70
2024-03-12T23:44:20.601Z,2.15
2024-03-12T23:46:47.780Z,1.70
2024-03-12T23:49:14.961Z,2.05
2024-03-12T23:51:42.211Z,2.08
2024-03-12T23:54:09.244Z,1.92
2024-03-12T23:56:39.316Z,2.40
2024-03-12T23:59:06.803Z,2.80
